Reportes METAR Cercanos

 

LEMD - Madrid/Barajas, Spain
Distance from station: N 10km
Updated: 14/12/2018 20:30
Despejado
Despejado
 Viento del E
Viento: E 6 km/h
Temperatura: 4°C
Rocío: 2°C
Humedad: 87%
Barómetro: 1025 hPa
Resumen: Despejado
Visibility: greater than 10 km
2018/12/14 20:30 LEMD 142030Z 10003KT 070V150 CAVOK 04/02 Q1025 NOSIG
LETO - Torrejon (usafb), Spain
Distance from station: NNE 13km
Updated: 14/12/2018 20:00
Despejado
Despejado
 Viento del N
Viento: N 4 km/h
Temperatura: 2°C
Rocío: 0°C
Humedad: 87%
Barómetro: 1025 hPa
Resumen: Despejado
Visibility: greater than 10 km
2018/12/14 20:00 LETO 142000Z 01002KT CAVOK 02/00 Q1025 NOSIG
 
LEGT - Madrid/Getafe (a, Spain
Distance from station: OSO 18km
Updated: 14/12/2018 20:00
Despejado
Despejado
 Viento del O
Viento: O 9 km/h
Temperatura: 6°C
Sensación Térmica: 4°C
Rocío: 1°C
Humedad: 71%
Barómetro: 1025 hPa
Resumen: Despejado
Visibility: greater than 10 km
2018/12/14 20:00 LEGT 142000Z 28005KT CAVOK 06/01 Q1025
LEVS - Madrid/Cuatro Vi, Spain
Distance from station: O 20km
Updated: 14/12/2018 19:00
NOT Current
Despejado
Despejado
 Viento del O
Viento: O 9 km/h
Temperatura: 5°C
Sensación Térmica: 3°C
Rocío: 0°C
Humedad: 70%
Barómetro: 1025 hPa
Resumen: Despejado
Visibility: greater than 10 km
2018/12/14 19:00 LEVS 141900Z 26005KT 230V290 CAVOK 05/00 Q1025
 
LECV - Madri-Colmenar, Spain
Distance from station: NNO 34km
Updated: 14/12/2018 18:00
NOT Current
Despejado
Despejado
 Viento del calm
Viento: Calma
Temperatura: 4°C
Rocío: -1°C
Humedad: 70%
Barómetro: 1023 hPa
Resumen: Despejado
Visibility: greater than 10 km
2018/12/14 18:00 LECV 141800Z 00000KT CAVOK 04/M01 Q1023